sensor_id;sensor_type;location;lat;lon;timestamp;P1;durP1;ratioP1;P2;durP2;ratioP2
69207;SDS011;70114;47.690;8.898;2023-07-13T00:00:41;5.93;;;1.80;;
69207;SDS011;70114;47.690;8.898;2023-07-13T00:03:07;6.97;;;1.80;;
69207;SDS011;70114;47.690;8.898;2023-07-13T00:05:33;7.67;;;1.90;;
69207;SDS011;70114;47.690;8.898;2023-07-13T00:07:58;5.97;;;1.67;;
69207;SDS011;70114;47.690;8.898;2023-07-13T00:10:24;6.80;;;1.88;;
69207;SDS011;70114;47.690;8.898;2023-07-13T00:12:49;6.20;;;1.90;;
69207;SDS011;70114;47.690;8.898;2023-07-13T00:15:16;7.00;;;1.90;;
69207;SDS011;70114;47.690;8.898;2023-07-13T00:17:54;7.53;;;2.00;;
69207;SDS011;70114;47.690;8.898;2023-07-13T00:20:23;6.38;;;1.92;;
69207;SDS011;70114;47.690;8.898;2023-07-13T00:22:50;6.18;;;2.00;;
69207;SDS011;70114;47.690;8.898;2023-07-13T00:25:18;6.53;;;2.15;;
69207;SDS011;70114;47.690;8.898;2023-07-13T00:27:46;7.87;;;2.17;;
69207;SDS011;70114;47.690;8.898;2023-07-13T00:30:13;6.50;;;2.05;;
69207;SDS011;70114;47.690;8.898;2023-07-13T00:32:39;7.88;;;2.35;;
69207;SDS011;70114;47.690;8.898;2023-07-13T00:35:05;6.40;;;2.03;;
69207;SDS011;70114;47.690;8.898;2023-07-13T00:37:31;6.85;;;2.22;;
69207;SDS011;70114;47.690;8.898;2023-07-13T00:39:57;6.63;;;1.97;;
69207;SDS011;70114;47.690;8.898;2023-07-13T00:42:23;8.27;;;2.10;;
69207;SDS011;70114;47.690;8.898;2023-07-13T00:45:05;7.70;;;2.10;;
69207;SDS011;70114;47.690;8.898;2023-07-13T00:47:31;7.18;;;2.28;;
69207;SDS011;70114;47.690;8.898;2023-07-13T00:49:56;6.80;;;2.00;;
69207;SDS011;70114;47.690;8.898;2023-07-13T00:52:22;7.17;;;2.20;;
69207;SDS011;70114;47.690;8.898;2023-07-13T00:54:48;7.22;;;2.08;;
69207;SDS011;70114;47.690;8.898;2023-07-13T00:57:15;7.13;;;1.70;;
69207;SDS011;70114;47.690;8.898;2023-07-13T00:59:43;6.22;;;1.90;;
69207;SDS011;70114;47.690;8.898;2023-07-13T01:02:12;7.43;;;1.98;;
69207;SDS011;70114;47.690;8.898;2023-07-13T01:04:37;6.47;;;1.97;;
69207;SDS011;70114;47.690;8.898;2023-07-13T01:07:03;7.55;;;1.98;;
69207;SDS011;70114;47.690;8.898;2023-07-13T01:09:31;7.22;;;2.05;;
69207;SDS011;70114;47.690;8.898;2023-07-13T01:11:56;7.80;;;2.00;;
69207;SDS011;70114;47.690;8.898;2023-07-13T01:14:22;7.30;;;2.20;;
69207;SDS011;70114;47.690;8.898;2023-07-13T01:16:47;7.33;;;1.90;;
69207;SDS011;70114;47.690;8.898;2023-07-13T01:22:01;7.35;;;1.95;;
69207;SDS011;70114;47.690;8.898;2023-07-13T01:24:28;8.43;;;2.22;;
69207;SDS011;70114;47.690;8.898;2023-07-13T01:26:54;7.77;;;2.20;;
69207;SDS011;70114;47.690;8.898;2023-07-13T01:29:19;6.38;;;1.75;;
69207;SDS011;70114;47.690;8.898;2023-07-13T01:31:45;7.63;;;1.90;;
69207;SDS011;70114;47.690;8.898;2023-07-13T01:34:10;7.18;;;2.42;;
69207;SDS011;70114;47.690;8.898;2023-07-13T01:36:36;7.37;;;1.77;;
69207;SDS011;70114;47.690;8.898;2023-07-13T01:39:02;8.00;;;2.20;;
69207;SDS011;70114;47.690;8.898;2023-07-13T01:41:28;7.85;;;2.10;;
69207;SDS011;70114;47.690;8.898;2023-07-13T01:43:54;10.40;;;1.93;;
69207;SDS011;70114;47.690;8.898;2023-07-13T01:46:19;7.35;;;2.13;;
69207;SDS011;70114;47.690;8.898;2023-07-13T01:48:44;5.93;;;1.90;;
69207;SDS011;70114;47.690;8.898;2023-07-13T01:51:10;7.30;;;1.97;;
69207;SDS011;70114;47.690;8.898;2023-07-13T01:53:35;7.18;;;2.08;;
69207;SDS011;70114;47.690;8.898;2023-07-13T01:56:01;8.40;;;2.20;;
69207;SDS011;70114;47.690;8.898;2023-07-13T01:58:27;7.80;;;1.90;;
69207;SDS011;70114;47.690;8.898;2023-07-13T02:00:52;6.73;;;2.00;;
69207;SDS011;70114;47.690;8.898;2023-07-13T02:03:18;6.43;;;1.80;;
69207;SDS011;70114;47.690;8.898;2023-07-13T02:05:44;7.03;;;1.70;;
69207;SDS011;70114;47.690;8.898;2023-07-13T02:08:10;6.57;;;2.17;;
69207;SDS011;70114;47.690;8.898;2023-07-13T02:10:36;7.03;;;2.25;;
69207;SDS011;70114;47.690;8.898;2023-07-13T02:13:04;6.95;;;1.88;;
69207;SDS011;70114;47.690;8.898;2023-07-13T02:15:30;7.03;;;2.10;;
69207;SDS011;70114;47.690;8.898;2023-07-13T02:17:56;6.60;;;1.92;;
69207;SDS011;70114;47.690;8.898;2023-07-13T02:20:23;7.53;;;1.87;;
69207;SDS011;70114;47.690;8.898;2023-07-13T02:22:49;7.75;;;2.08;;
69207;SDS011;70114;47.690;8.898;2023-07-13T02:25:15;7.32;;;2.10;;
69207;SDS011;70114;47.690;8.898;2023-07-13T02:27:40;7.07;;;2.03;;
69207;SDS011;70114;47.690;8.898;2023-07-13T02:30:06;6.70;;;1.93;;
69207;SDS011;70114;47.690;8.898;2023-07-13T02:32:32;7.15;;;2.00;;
69207;SDS011;70114;47.690;8.898;2023-07-13T02:34:58;8.35;;;2.67;;
69207;SDS011;70114;47.690;8.898;2023-07-13T02:37:24;7.83;;;3.07;;
69207;SDS011;70114;47.690;8.898;2023-07-13T02:39:49;7.37;;;2.90;;
69207;SDS011;70114;47.690;8.898;2023-07-13T02:42:15;8.20;;;2.97;;
69207;SDS011;70114;47.690;8.898;2023-07-13T02:44:40;7.83;;;2.63;;
69207;SDS011;70114;47.690;8.898;2023-07-13T02:47:06;6.97;;;2.60;;
69207;SDS011;70114;47.690;8.898;2023-07-13T02:49:31;7.80;;;2.53;;
69207;SDS011;70114;47.690;8.898;2023-07-13T02:51:57;8.57;;;2.30;;
69207;SDS011;70114;47.690;8.898;2023-07-13T02:54:22;9.10;;;3.33;;
69207;SDS011;70114;47.690;8.898;2023-07-13T02:56:48;8.75;;;3.10;;
69207;SDS011;70114;47.690;8.898;2023-07-13T02:59:13;7.30;;;2.80;;
69207;SDS011;70114;47.690;8.898;2023-07-13T03:01:39;8.03;;;2.77;;
69207;SDS011;70114;47.690;8.898;2023-07-13T03:04:05;8.52;;;2.83;;
69207;SDS011;70114;47.690;8.898;2023-07-13T03:06:31;7.80;;;2.67;;
69207;SDS011;70114;47.690;8.898;2023-07-13T03:08:58;9.02;;;3.13;;
69207;SDS011;70114;47.690;8.898;2023-07-13T03:11:23;7.53;;;2.63;;
69207;SDS011;70114;47.690;8.898;2023-07-13T03:13:48;8.15;;;2.70;;
69207;SDS011;70114;47.690;8.898;2023-07-13T03:16:14;10.07;;;2.67;;
69207;SDS011;70114;47.690;8.898;2023-07-13T03:18:41;8.55;;;2.70;;
69207;SDS011;70114;47.690;8.898;2023-07-13T03:21:07;8.23;;;2.50;;
69207;SDS011;70114;47.690;8.898;2023-07-13T03:23:32;6.78;;;2.70;;
69207;SDS011;70114;47.690;8.898;2023-07-13T03:26:17;8.97;;;2.20;;
69207;SDS011;70114;47.690;8.898;2023-07-13T03:28:44;7.90;;;2.42;;
69207;SDS011;70114;47.690;8.898;2023-07-13T03:31:12;8.93;;;2.60;;
69207;SDS011;70114;47.690;8.898;2023-07-13T03:33:42;9.32;;;2.65;;
69207;SDS011;70114;47.690;8.898;2023-07-13T03:36:10;7.75;;;2.42;;
69207;SDS011;70114;47.690;8.898;2023-07-13T03:38:38;8.50;;;2.40;;
69207;SDS011;70114;47.690;8.898;2023-07-13T03:41:03;7.53;;;2.37;;
69207;SDS011;70114;47.690;8.898;2023-07-13T03:43:28;8.03;;;2.07;;
69207;SDS011;70114;47.690;8.898;2023-07-13T03:45:54;8.67;;;2.50;;
69207;SDS011;70114;47.690;8.898;2023-07-13T03:48:20;7.53;;;2.20;;
69207;SDS011;70114;47.690;8.898;2023-07-13T03:50:46;7.60;;;2.17;;
69207;SDS011;70114;47.690;8.898;2023-07-13T03:53:12;7.53;;;2.22;;
69207;SDS011;70114;47.690;8.898;2023-07-13T03:55:37;8.60;;;2.40;;
69207;SDS011;70114;47.690;8.898;2023-07-13T04:00:55;7.43;;;2.27;;
69207;SDS011;70114;47.690;8.898;2023-07-13T04:03:22;7.05;;;2.58;;
69207;SDS011;70114;47.690;8.898;2023-07-13T04:05:47;8.70;;;2.55;;
69207;SDS011;70114;47.690;8.898;2023-07-13T04:08:13;8.57;;;2.53;;
69207;SDS011;70114;47.690;8.898;2023-07-13T04:10:38;7.93;;;2.60;;
69207;SDS011;70114;47.690;8.898;2023-07-13T04:13:04;7.32;;;2.45;;
69207;SDS011;70114;47.690;8.898;2023-07-13T04:15:30;7.57;;;2.33;;
69207;SDS011;70114;47.690;8.898;2023-07-13T04:17:57;7.55;;;2.30;;
69207;SDS011;70114;47.690;8.898;2023-07-13T04:20:24;7.72;;;2.33;;
69207;SDS011;70114;47.690;8.898;2023-07-13T04:22:50;7.28;;;2.55;;
69207;SDS011;70114;47.690;8.898;2023-07-13T04:25:15;9.13;;;2.50;;
69207;SDS011;70114;47.690;8.898;2023-07-13T04:27:41;7.30;;;2.27;;
69207;SDS011;70114;47.690;8.898;2023-07-13T04:30:06;7.07;;;2.45;;
69207;SDS011;70114;47.690;8.898;2023-07-13T04:32:32;8.30;;;2.40;;
69207;SDS011;70114;47.690;8.898;2023-07-13T04:34:58;7.03;;;2.30;;
69207;SDS011;70114;47.690;8.898;2023-07-13T04:37:24;8.48;;;2.25;;
69207;SDS011;70114;47.690;8.898;2023-07-13T04:39:50;8.13;;;2.33;;
69207;SDS011;70114;47.690;8.898;2023-07-13T04:42:16;8.05;;;2.78;;
69207;SDS011;70114;47.690;8.898;2023-07-13T04:44:41;7.67;;;2.30;;
69207;SDS011;70114;47.690;8.898;2023-07-13T04:47:07;8.70;;;2.37;;
69207;SDS011;70114;47.690;8.898;2023-07-13T04:49:32;9.07;;;2.25;;
69207;SDS011;70114;47.690;8.898;2023-07-13T04:51:58;7.50;;;2.30;;
69207;SDS011;70114;47.690;8.898;2023-07-13T04:54:23;6.00;;;1.97;;
69207;SDS011;70114;47.690;8.898;2023-07-13T04:56:48;8.17;;;2.20;;
69207;SDS011;70114;47.690;8.898;2023-07-13T04:59:14;7.88;;;2.25;;
69207;SDS011;70114;47.690;8.898;2023-07-13T05:01:39;8.80;;;2.20;;
69207;SDS011;70114;47.690;8.898;2023-07-13T05:04:05;7.97;;;2.40;;
69207;SDS011;70114;47.690;8.898;2023-07-13T05:06:31;7.33;;;2.50;;
69207;SDS011;70114;47.690;8.898;2023-07-13T05:08:56;6.73;;;2.00;;
69207;SDS011;70114;47.690;8.898;2023-07-13T05:11:22;8.48;;;2.30;;
69207;SDS011;70114;47.690;8.898;2023-07-13T05:13:47;6.97;;;2.33;;
69207;SDS011;70114;47.690;8.898;2023-07-13T05:16:13;7.27;;;1.80;;
69207;SDS011;70114;47.690;8.898;2023-07-13T05:18:38;9.97;;;2.60;;
69207;SDS011;70114;47.690;8.898;2023-07-13T05:21:08;7.53;;;2.20;;
69207;SDS011;70114;47.690;8.898;2023-07-13T05:23:35;7.70;;;2.40;;
69207;SDS011;70114;47.690;8.898;2023-07-13T05:26:02;7.63;;;2.30;;
69207;SDS011;70114;47.690;8.898;2023-07-13T05:28:28;7.43;;;2.38;;
69207;SDS011;70114;47.690;8.898;2023-07-13T05:30:55;8.10;;;2.20;;
69207;SDS011;70114;47.690;8.898;2023-07-13T05:33:21;6.40;;;2.00;;
69207;SDS011;70114;47.690;8.898;2023-07-13T05:35:47;6.93;;;1.83;;
69207;SDS011;70114;47.690;8.898;2023-07-13T05:38:12;6.95;;;2.03;;
69207;SDS011;70114;47.690;8.898;2023-07-13T05:40:37;7.70;;;2.30;;
69207;SDS011;70114;47.690;8.898;2023-07-13T05:43:03;7.40;;;2.27;;
69207;SDS011;70114;47.690;8.898;2023-07-13T05:45:28;6.70;;;1.90;;
69207;SDS011;70114;47.690;8.898;2023-07-13T05:47:55;6.60;;;2.03;;
69207;SDS011;70114;47.690;8.898;2023-07-13T05:50:21;6.70;;;1.90;;
69207;SDS011;70114;47.690;8.898;2023-07-13T05:52:46;7.95;;;1.77;;
69207;SDS011;70114;47.690;8.898;2023-07-13T05:55:12;7.13;;;2.40;;
69207;SDS011;70114;47.690;8.898;2023-07-13T05:57:38;7.15;;;2.00;;
69207;SDS011;70114;47.690;8.898;2023-07-13T06:00:03;7.13;;;2.20;;
69207;SDS011;70114;47.690;8.898;2023-07-13T06:02:29;7.72;;;2.25;;
69207;SDS011;70114;47.690;8.898;2023-07-13T06:04:55;7.55;;;2.33;;
69207;SDS011;70114;47.690;8.898;2023-07-13T06:07:20;7.40;;;2.40;;
69207;SDS011;70114;47.690;8.898;2023-07-13T06:09:46;8.50;;;2.37;;
69207;SDS011;70114;47.690;8.898;2023-07-13T06:12:11;7.57;;;2.33;;
69207;SDS011;70114;47.690;8.898;2023-07-13T06:14:36;6.90;;;2.30;;
69207;SDS011;70114;47.690;8.898;2023-07-13T06:17:02;7.18;;;2.80;;
69207;SDS011;70114;47.690;8.898;2023-07-13T06:19:28;9.00;;;2.90;;
69207;SDS011;70114;47.690;8.898;2023-07-13T06:21:54;7.88;;;2.50;;
69207;SDS011;70114;47.690;8.898;2023-07-13T06:24:19;9.27;;;2.60;;
69207;SDS011;70114;47.690;8.898;2023-07-13T06:26:45;7.57;;;2.80;;
69207;SDS011;70114;47.690;8.898;2023-07-13T06:29:10;6.73;;;2.80;;
69207;SDS011;70114;47.690;8.898;2023-07-13T06:31:35;7.53;;;2.70;;
69207;SDS011;70114;47.690;8.898;2023-07-13T06:34:01;7.77;;;2.80;;
69207;SDS011;70114;47.690;8.898;2023-07-13T06:36:26;9.30;;;3.30;;
69207;SDS011;70114;47.690;8.898;2023-07-13T06:38:51;8.83;;;2.60;;
69207;SDS011;70114;47.690;8.898;2023-07-13T06:41:17;8.53;;;3.20;;
69207;SDS011;70114;47.690;8.898;2023-07-13T06:43:42;7.57;;;2.90;;
69207;SDS011;70114;47.690;8.898;2023-07-13T06:46:08;8.23;;;3.00;;
69207;SDS011;70114;47.690;8.898;2023-07-13T06:48:33;10.20;;;3.30;;
69207;SDS011;70114;47.690;8.898;2023-07-13T06:50:58;7.80;;;2.50;;
69207;SDS011;70114;47.690;8.898;2023-07-13T06:53:24;7.73;;;3.00;;
69207;SDS011;70114;47.690;8.898;2023-07-13T06:55:49;9.32;;;3.00;;
69207;SDS011;70114;47.690;8.898;2023-07-13T06:58:17;7.27;;;2.80;;
69207;SDS011;70114;47.690;8.898;2023-07-13T07:00:43;7.35;;;3.10;;
69207;SDS011;70114;47.690;8.898;2023-07-13T07:03:09;8.65;;;2.97;;
69207;SDS011;70114;47.690;8.898;2023-07-13T07:05:34;7.50;;;3.10;;
69207;SDS011;70114;47.690;8.898;2023-07-13T07:08:00;7.07;;;2.72;;
69207;SDS011;70114;47.690;8.898;2023-07-13T07:10:25;6.87;;;2.60;;
69207;SDS011;70114;47.690;8.898;2023-07-13T07:12:51;7.88;;;2.78;;
69207;SDS011;70114;47.690;8.898;2023-07-13T07:15:17;7.30;;;2.60;;
69207;SDS011;70114;47.690;8.898;2023-07-13T07:17:43;8.75;;;3.13;;
69207;SDS011;70114;47.690;8.898;2023-07-13T07:20:09;10.93;;;3.50;;
69207;SDS011;70114;47.690;8.898;2023-07-13T07:22:35;8.43;;;3.33;;
69207;SDS011;70114;47.690;8.898;2023-07-13T07:25:00;8.97;;;3.83;;
69207;SDS011;70114;47.690;8.898;2023-07-13T07:27:26;8.37;;;3.40;;
69207;SDS011;70114;47.690;8.898;2023-07-13T07:29:51;8.27;;;3.10;;
69207;SDS011;70114;47.690;8.898;2023-07-13T07:32:17;8.37;;;3.00;;
69207;SDS011;70114;47.690;8.898;2023-07-13T07:34:44;7.57;;;2.80;;
69207;SDS011;70114;47.690;8.898;2023-07-13T07:37:09;7.70;;;2.50;;
69207;SDS011;70114;47.690;8.898;2023-07-13T07:39:36;7.43;;;2.20;;
69207;SDS011;70114;47.690;8.898;2023-07-13T07:42:02;7.07;;;1.95;;
69207;SDS011;70114;47.690;8.898;2023-07-13T07:44:27;7.03;;;1.70;;
69207;SDS011;70114;47.690;8.898;2023-07-13T07:46:53;5.00;;;1.40;;
69207;SDS011;70114;47.690;8.898;2023-07-13T07:49:20;5.40;;;1.58;;
69207;SDS011;70114;47.690;8.898;2023-07-13T07:51:45;5.13;;;1.20;;
69207;SDS011;70114;47.690;8.898;2023-07-13T07:54:11;5.53;;;1.30;;
69207;SDS011;70114;47.690;8.898;2023-07-13T07:56:37;5.70;;;1.43;;
69207;SDS011;70114;47.690;8.898;2023-07-13T07:59:02;4.97;;;1.37;;
69207;SDS011;70114;47.690;8.898;2023-07-13T08:01:27;5.80;;;1.40;;
69207;SDS011;70114;47.690;8.898;2023-07-13T08:03:53;6.30;;;1.40;;
69207;SDS011;70114;47.690;8.898;2023-07-13T08:06:18;6.28;;;1.50;;
69207;SDS011;70114;47.690;8.898;2023-07-13T08:08:45;6.07;;;1.30;;
69207;SDS011;70114;47.690;8.898;2023-07-13T08:11:10;6.57;;;1.50;;
69207;SDS011;70114;47.690;8.898;2023-07-13T08:13:36;5.35;;;1.33;;
69207;SDS011;70114;47.690;8.898;2023-07-13T08:16:03;6.90;;;1.20;;
69207;SDS011;70114;47.690;8.898;2023-07-13T08:18:30;6.40;;;1.60;;
69207;SDS011;70114;47.690;8.898;2023-07-13T08:20:55;5.90;;;1.70;;
69207;SDS011;70114;47.690;8.898;2023-07-13T08:23:24;7.03;;;1.60;;
69207;SDS011;70114;47.690;8.898;2023-07-13T08:25:51;5.50;;;1.20;;
69207;SDS011;70114;47.690;8.898;2023-07-13T08:28:22;5.78;;;1.65;;
69207;SDS011;70114;47.690;8.898;2023-07-13T08:30:48;7.07;;;1.58;;
69207;SDS011;70114;47.690;8.898;2023-07-13T08:33:18;6.60;;;1.60;;
69207;SDS011;70114;47.690;8.898;2023-07-13T08:35:47;6.28;;;1.30;;
69207;SDS011;70114;47.690;8.898;2023-07-13T08:38:13;5.63;;;1.40;;
69207;SDS011;70114;47.690;8.898;2023-07-13T08:40:39;5.93;;;1.50;;
69207;SDS011;70114;47.690;8.898;2023-07-13T08:43:06;5.75;;;1.77;;
69207;SDS011;70114;47.690;8.898;2023-07-13T08:48:18;6.47;;;1.40;;
69207;SDS011;70114;47.690;8.898;2023-07-13T08:50:51;5.45;;;1.70;;
69207;SDS011;70114;47.690;8.898;2023-07-13T08:53:21;6.70;;;1.50;;
69207;SDS011;70114;47.690;8.898;2023-07-13T08:55:48;5.57;;;1.35;;
69207;SDS011;70114;47.690;8.898;2023-07-13T08:58:22;5.27;;;1.60;;
69207;SDS011;70114;47.690;8.898;2023-07-13T09:01:10;5.60;;;1.30;;
69207;SDS011;70114;47.690;8.898;2023-07-13T09:04:23;4.68;;;1.17;;
69207;SDS011;70114;47.690;8.898;2023-07-13T09:14:48;6.10;;;1.50;;
69207;SDS011;70114;47.690;8.898;2023-07-13T09:17:27;5.32;;;1.58;;
69207;SDS011;70114;47.690;8.898;2023-07-13T09:20:00;5.82;;;1.48;;
69207;SDS011;70114;47.690;8.898;2023-07-13T09:22:35;5.18;;;1.30;;
69207;SDS011;70114;47.690;8.898;2023-07-13T09:25:13;6.40;;;1.37;;
69207;SDS011;70114;47.690;8.898;2023-07-13T09:27:48;5.07;;;1.40;;
69207;SDS011;70114;47.690;8.898;2023-07-13T09:30:21;5.55;;;1.42;;
69207;SDS011;70114;47.690;8.898;2023-07-13T09:32:53;4.95;;;1.52;;
69207;SDS011;70114;47.690;8.898;2023-07-13T09:35:20;5.40;;;1.67;;
69207;SDS011;70114;47.690;8.898;2023-07-13T09:37:49;4.80;;;1.43;;
69207;SDS011;70114;47.690;8.898;2023-07-13T09:40:24;5.30;;;1.60;;
69207;SDS011;70114;47.690;8.898;2023-07-13T09:42:55;6.20;;;1.77;;
69207;SDS011;70114;47.690;8.898;2023-07-13T09:45:29;5.20;;;1.45;;
69207;SDS011;70114;47.690;8.898;2023-07-13T09:48:02;5.90;;;1.87;;
69207;SDS011;70114;47.690;8.898;2023-07-13T09:50:30;5.18;;;1.27;;
69207;SDS011;70114;47.690;8.898;2023-07-13T09:52:55;5.30;;;1.80;;
69207;SDS011;70114;47.690;8.898;2023-07-13T09:57:52;6.70;;;2.03;;
69207;SDS011;70114;47.690;8.898;2023-07-13T10:00:28;6.07;;;2.20;;
69207;SDS011;70114;47.690;8.898;2023-07-13T10:03:28;6.43;;;2.30;;
69207;SDS011;70114;47.690;8.898;2023-07-13T10:05:49;5.70;;;1.90;;
69207;SDS011;70114;47.690;8.898;2023-07-13T10:08:26;7.38;;;2.10;;
69207;SDS011;70114;47.690;8.898;2023-07-13T10:11:29;7.40;;;2.10;;
69207;SDS011;70114;47.690;8.898;2023-07-13T10:13:54;7.07;;;2.10;;
69207;SDS011;70114;47.690;8.898;2023-07-13T10:16:28;6.57;;;2.17;;
69207;SDS011;70114;47.690;8.898;2023-07-13T10:19:21;6.43;;;1.90;;
69207;SDS011;70114;47.690;8.898;2023-07-13T10:21:55;7.22;;;2.10;;
69207;SDS011;70114;47.690;8.898;2023-07-13T10:24:30;5.75;;;1.63;;
69207;SDS011;70114;47.690;8.898;2023-07-13T10:29:29;5.35;;;1.70;;
69207;SDS011;70114;47.690;8.898;2023-07-13T10:32:00;5.63;;;1.70;;
69207;SDS011;70114;47.690;8.898;2023-07-13T10:34:25;6.38;;;2.03;;
69207;SDS011;70114;47.690;8.898;2023-07-13T10:36:52;6.50;;;1.90;;
69207;SDS011;70114;47.690;8.898;2023-07-13T10:39:19;5.40;;;1.80;;
69207;SDS011;70114;47.690;8.898;2023-07-13T10:41:49;6.57;;;2.05;;
69207;SDS011;70114;47.690;8.898;2023-07-13T10:44:21;5.57;;;1.77;;
69207;SDS011;70114;47.690;8.898;2023-07-13T10:46:52;5.65;;;1.75;;
69207;SDS011;70114;47.690;8.898;2023-07-13T10:49:23;5.27;;;1.50;;
69207;SDS011;70114;47.690;8.898;2023-07-13T10:51:51;6.45;;;1.90;;
69207;SDS011;70114;47.690;8.898;2023-07-13T10:56:49;5.88;;;1.83;;
69207;SDS011;70114;47.690;8.898;2023-07-13T10:59:26;6.47;;;2.10;;
69207;SDS011;70114;47.690;8.898;2023-07-13T11:04:23;6.32;;;1.90;;
69207;SDS011;70114;47.690;8.898;2023-07-13T11:06:52;7.22;;;2.30;;
69207;SDS011;70114;47.690;8.898;2023-07-13T11:17:24;5.80;;;1.92;;
69207;SDS011;70114;47.690;8.898;2023-07-13T11:19:53;5.90;;;1.95;;
69207;SDS011;70114;47.690;8.898;2023-07-13T11:22:24;7.18;;;2.00;;
69207;SDS011;70114;47.690;8.898;2023-07-13T11:24:51;6.25;;;2.20;;
69207;SDS011;70114;47.690;8.898;2023-07-13T11:38:18;6.43;;;1.90;;
69207;SDS011;70114;47.690;8.898;2023-07-13T11:40:50;9.83;;;1.73;;
69207;SDS011;70114;47.690;8.898;2023-07-13T11:43:18;7.35;;;1.92;;
69207;SDS011;70114;47.690;8.898;2023-07-13T11:45:44;5.97;;;1.90;;
69207;SDS011;70114;47.690;8.898;2023-07-13T11:51:11;6.18;;;1.70;;
69207;SDS011;70114;47.690;8.898;2023-07-13T11:53:46;6.43;;;1.70;;
69207;SDS011;70114;47.690;8.898;2023-07-13T11:56:13;5.30;;;1.80;;
69207;SDS011;70114;47.690;8.898;2023-07-13T11:58:39;6.57;;;1.88;;
69207;SDS011;70114;47.690;8.898;2023-07-13T12:01:05;7.45;;;2.10;;
69207;SDS011;70114;47.690;8.898;2023-07-13T12:03:32;6.28;;;2.10;;
69207;SDS011;70114;47.690;8.898;2023-07-13T12:06:05;5.80;;;1.73;;
69207;SDS011;70114;47.690;8.898;2023-07-13T12:08:45;6.25;;;1.98;;
69207;SDS011;70114;47.690;8.898;2023-07-13T12:11:17;6.38;;;2.22;;
69207;SDS011;70114;47.690;8.898;2023-07-13T12:13:43;6.30;;;1.93;;
69207;SDS011;70114;47.690;8.898;2023-07-13T12:16:31;6.07;;;1.70;;
69207;SDS011;70114;47.690;8.898;2023-07-13T12:18:58;7.18;;;1.98;;
69207;SDS011;70114;47.690;8.898;2023-07-13T12:21:32;6.63;;;1.80;;
69207;SDS011;70114;47.690;8.898;2023-07-13T12:23:59;5.60;;;1.67;;
69207;SDS011;70114;47.690;8.898;2023-07-13T12:26:27;6.90;;;2.00;;
69207;SDS011;70114;47.690;8.898;2023-07-13T12:28:54;5.10;;;1.75;;
69207;SDS011;70114;47.690;8.898;2023-07-13T12:36:34;7.53;;;1.88;;
69207;SDS011;70114;47.690;8.898;2023-07-13T12:39:11;6.97;;;2.00;;
69207;SDS011;70114;47.690;8.898;2023-07-13T12:41:38;6.05;;;1.52;;
69207;SDS011;70114;47.690;8.898;2023-07-13T12:44:07;5.97;;;1.70;;
69207;SDS011;70114;47.690;8.898;2023-07-13T12:46:36;4.72;;;1.60;;
69207;SDS011;70114;47.690;8.898;2023-07-13T12:49:04;5.93;;;2.10;;
69207;SDS011;70114;47.690;8.898;2023-07-13T12:51:32;6.68;;;2.10;;
69207;SDS011;70114;47.690;8.898;2023-07-13T12:54:05;5.63;;;1.70;;
69207;SDS011;70114;47.690;8.898;2023-07-13T12:56:36;5.13;;;1.73;;
69207;SDS011;70114;47.690;8.898;2023-07-13T12:59:04;9.83;;;2.10;;
69207;SDS011;70114;47.690;8.898;2023-07-13T13:01:32;6.40;;;2.00;;
69207;SDS011;70114;47.690;8.898;2023-07-13T13:04:01;5.82;;;1.75;;
69207;SDS011;70114;47.690;8.898;2023-07-13T13:06:31;6.20;;;2.05;;
69207;SDS011;70114;47.690;8.898;2023-07-13T13:08:58;6.07;;;1.80;;
69207;SDS011;70114;47.690;8.898;2023-07-13T13:11:25;5.45;;;1.77;;
69207;SDS011;70114;47.690;8.898;2023-07-13T13:13:51;6.85;;;1.80;;
69207;SDS011;70114;47.690;8.898;2023-07-13T13:19:16;5.18;;;1.50;;
69207;SDS011;70114;47.690;8.898;2023-07-13T13:21:43;8.48;;;2.00;;
69207;SDS011;70114;47.690;8.898;2023-07-13T13:24:15;5.88;;;1.55;;
69207;SDS011;70114;47.690;8.898;2023-07-13T13:26:42;5.22;;;1.60;;
69207;SDS011;70114;47.690;8.898;2023-07-13T13:29:12;5.10;;;1.70;;
69207;SDS011;70114;47.690;8.898;2023-07-13T13:31:43;5.45;;;1.70;;
69207;SDS011;70114;47.690;8.898;2023-07-13T13:34:12;6.07;;;1.90;;
69207;SDS011;70114;47.690;8.898;2023-07-13T13:36:39;5.82;;;1.50;;
69207;SDS011;70114;47.690;8.898;2023-07-13T13:39:25;6.75;;;1.70;;
69207;SDS011;70114;47.690;8.898;2023-07-13T13:41:56;6.07;;;1.47;;
69207;SDS011;70114;47.690;8.898;2023-07-13T13:44:21;5.93;;;1.20;;
69207;SDS011;70114;47.690;8.898;2023-07-13T13:46:48;5.20;;;1.37;;
69207;SDS011;70114;47.690;8.898;2023-07-13T13:49:17;5.47;;;1.25;;
69207;SDS011;70114;47.690;8.898;2023-07-13T13:51:46;6.57;;;1.48;;
69207;SDS011;70114;47.690;8.898;2023-07-13T13:54:12;4.85;;;1.60;;
69207;SDS011;70114;47.690;8.898;2023-07-13T13:56:40;5.07;;;1.37;;
69207;SDS011;70114;47.690;8.898;2023-07-13T13:59:09;4.70;;;1.23;;
69207;SDS011;70114;47.690;8.898;2023-07-13T14:01:35;5.45;;;1.77;;
69207;SDS011;70114;47.690;8.898;2023-07-13T14:04:02;6.55;;;1.60;;
69207;SDS011;70114;47.690;8.898;2023-07-13T14:06:28;4.72;;;1.48;;
69207;SDS011;70114;47.690;8.898;2023-07-13T14:08:53;5.07;;;1.30;;
69207;SDS011;70114;47.690;8.898;2023-07-13T14:11:20;6.60;;;1.30;;
69207;SDS011;70114;47.690;8.898;2023-07-13T14:13:57;4.17;;;0.93;;
69207;SDS011;70114;47.690;8.898;2023-07-13T14:16:26;4.80;;;1.27;;
69207;SDS011;70114;47.690;8.898;2023-07-13T14:18:54;5.78;;;1.30;;
69207;SDS011;70114;47.690;8.898;2023-07-13T14:21:23;6.68;;;2.00;;
69207;SDS011;70114;47.690;8.898;2023-07-13T14:23:49;5.15;;;1.15;;
69207;SDS011;70114;47.690;8.898;2023-07-13T14:28:55;5.38;;;1.10;;
69207;SDS011;70114;47.690;8.898;2023-07-13T14:31:23;4.93;;;1.20;;
69207;SDS011;70114;47.690;8.898;2023-07-13T14:33:49;4.43;;;1.17;;
69207;SDS011;70114;47.690;8.898;2023-07-13T14:36:34;6.37;;;1.37;;
69207;SDS011;70114;47.690;8.898;2023-07-13T14:39:14;4.50;;;1.10;;
69207;SDS011;70114;47.690;8.898;2023-07-13T14:41:41;6.55;;;1.58;;
69207;SDS011;70114;47.690;8.898;2023-07-13T14:44:11;5.17;;;1.30;;
69207;SDS011;70114;47.690;8.898;2023-07-13T14:46:37;4.53;;;1.25;;
69207;SDS011;70114;47.690;8.898;2023-07-13T14:49:03;5.93;;;1.57;;
69207;SDS011;70114;47.690;8.898;2023-07-13T14:51:50;5.23;;;1.90;;
69207;SDS011;70114;47.690;8.898;2023-07-13T14:54:16;6.35;;;1.30;;
69207;SDS011;70114;47.690;8.898;2023-07-13T14:56:42;4.77;;;1.47;;
69207;SDS011;70114;47.690;8.898;2023-07-13T14:59:07;5.77;;;1.20;;
69207;SDS011;70114;47.690;8.898;2023-07-13T15:01:33;4.43;;;1.40;;
69207;SDS011;70114;47.690;8.898;2023-07-13T15:04:00;4.97;;;1.30;;
69207;SDS011;70114;47.690;8.898;2023-07-13T15:06:26;4.60;;;1.53;;
69207;SDS011;70114;47.690;8.898;2023-07-13T15:08:52;5.72;;;1.77;;
69207;SDS011;70114;47.690;8.898;2023-07-13T15:11:17;4.43;;;1.50;;
69207;SDS011;70114;47.690;8.898;2023-07-13T15:13:43;4.80;;;1.50;;
69207;SDS011;70114;47.690;8.898;2023-07-13T15:16:21;4.82;;;1.30;;
69207;SDS011;70114;47.690;8.898;2023-07-13T15:18:49;3.85;;;1.08;;
69207;SDS011;70114;47.690;8.898;2023-07-13T15:21:18;5.53;;;1.38;;
69207;SDS011;70114;47.690;8.898;2023-07-13T15:23:46;7.72;;;1.60;;
69207;SDS011;70114;47.690;8.898;2023-07-13T15:26:12;3.97;;;1.20;;
69207;SDS011;70114;47.690;8.898;2023-07-13T15:28:42;5.30;;;1.45;;
69207;SDS011;70114;47.690;8.898;2023-07-13T15:31:19;4.50;;;1.50;;
69207;SDS011;70114;47.690;8.898;2023-07-13T15:33:46;4.90;;;1.40;;
69207;SDS011;70114;47.690;8.898;2023-07-13T15:36:14;5.72;;;1.42;;
69207;SDS011;70114;47.690;8.898;2023-07-13T15:38:42;4.43;;;0.90;;
69207;SDS011;70114;47.690;8.898;2023-07-13T15:41:15;4.78;;;1.50;;
69207;SDS011;70114;47.690;8.898;2023-07-13T15:43:43;4.80;;;1.00;;
69207;SDS011;70114;47.690;8.898;2023-07-13T15:46:08;5.18;;;1.13;;
69207;SDS011;70114;47.690;8.898;2023-07-13T15:48:34;3.73;;;0.90;;
69207;SDS011;70114;47.690;8.898;2023-07-13T15:51:00;4.57;;;1.10;;